createdAt,value
2017-05-09T00:00:50.243Z,1.57
2017-05-09T00:03:19.527Z,1.87
2017-05-09T00:05:48.819Z,1.47
2017-05-09T00:08:18.543Z,1.65
2017-05-09T00:10:48.254Z,1.53
2017-05-09T00:13:18.171Z,1.40
2017-05-09T00:15:47.677Z,1.57
2017-05-09T00:18:17.397Z,1.45
2017-05-09T00:20:46.686Z,1.92
2017-05-09T00:23:15.993Z,1.90
2017-05-09T00:25:45.223Z,2.02
2017-05-09T00:28:14.985Z,1.90
2017-05-09T00:30:44.508Z,1.72
2017-05-09T00:33:14.422Z,1.73
2017-05-09T00:35:44.032Z,1.87
2017-05-09T00:38:13.332Z,1.83
2017-05-09T00:40:42.944Z,1.80
2017-05-09T00:43:12.203Z,2.83
2017-05-09T00:45:41.545Z,1.90
2017-05-09T00:48:11.055Z,1.97
2017-05-09T00:50:40.562Z,2.05
2017-05-09T00:53:10.065Z,2.00
2017-05-09T00:55:39.368Z,2.52
2017-05-09T00:58:08.662Z,2.12
2017-05-09T01:00:38.582Z,2.55
2017-05-09T01:03:07.885Z,2.57
2017-05-09T01:05:37.802Z,1.47
2017-05-09T01:08:07.088Z,1.50
2017-05-09T01:10:36.693Z,1.63
2017-05-09T01:13:06.116Z,2.40
2017-05-09T01:15:35.599Z,1.82
2017-05-09T01:18:05.128Z,2.15
2017-05-09T01:20:34.431Z,2.07
2017-05-09T01:23:04.039Z,2.03
2017-05-09T01:25:34.313Z,1.70
2017-05-09T01:28:04.181Z,2.00
2017-05-09T01:30:33.688Z,1.62
2017-05-09T01:33:02.966Z,2.12
2017-05-09T01:35:32.492Z,1.55
2017-05-09T01:38:01.795Z,1.90
2017-05-09T01:40:31.506Z,2.00
2017-05-09T01:43:01.012Z,2.83
2017-05-09T01:45:31.117Z,1.92
2017-05-09T01:48:00.524Z,2.30
2017-05-09T01:50:30.143Z,1.95
2017-05-09T01:52:59.449Z,2.28
2017-05-09T01:55:28.748Z,2.35
2017-05-09T01:57:58.055Z,1.38
2017-05-09T02:00:27.559Z,1.97
2017-05-09T02:02:57.269Z,1.55
2017-05-09T02:05:26.775Z,2.57
2017-05-09T02:07:56.267Z,2.25
2017-05-09T02:10:25.653Z,1.82
2017-05-09T02:12:55.495Z,2.13
2017-05-09T02:15:24.797Z,2.23
2017-05-09T02:17:54.713Z,2.10
2017-05-09T02:20:24.003Z,2.13
2017-05-09T02:22:53.406Z,1.85
2017-05-09T02:25:22.915Z,2.12
2017-05-09T02:27:52.557Z,2.65
2017-05-09T02:30:22.041Z,3.15
2017-05-09T02:32:51.545Z,2.37
2017-05-09T02:35:20.847Z,1.93
2017-05-09T02:37:50.258Z,1.78
2017-05-09T02:40:20.677Z,2.08
2017-05-09T02:42:50.499Z,1.82
2017-05-09T02:45:20.101Z,2.13
2017-05-09T02:47:49.812Z,2.28
2017-05-09T02:50:19.729Z,1.80
2017-05-09T02:52:49.236Z,1.78
2017-05-09T02:55:18.569Z,1.80
2017-05-09T02:57:48.254Z,2.32
2017-05-09T03:00:17.549Z,1.82
2017-05-09T03:02:46.849Z,1.97
2017-05-09T03:05:16.357Z,1.63
2017-05-09T03:07:45.660Z,2.25
2017-05-09T03:10:15.575Z,1.65
2017-05-09T03:12:44.875Z,2.20
2017-05-09T03:15:14.384Z,2.67
2017-05-09T03:17:43.673Z,2.28
2017-05-09T03:20:13.193Z,1.65
2017-05-09T03:22:42.491Z,2.07
2017-05-09T03:25:12.200Z,2.15
2017-05-09T03:27:41.506Z,1.97
2017-05-09T03:30:11.011Z,1.90
2017-05-09T03:32:40.515Z,1.95
2017-05-09T03:35:10.432Z,2.52
2017-05-09T03:37:39.941Z,1.65
2017-05-09T03:40:09.441Z,2.22
2017-05-09T03:42:39.361Z,1.97
2017-05-09T03:45:09.071Z,2.32
2017-05-09T03:47:38.988Z,1.85
2017-05-09T03:50:08.801Z,2.55
2017-05-09T03:52:38.206Z,2.13
2017-05-09T03:55:07.812Z,1.90
2017-05-09T03:57:37.422Z,1.92
2017-05-09T04:00:07.137Z,1.77
2017-05-09T04:02:36.640Z,1.75
2017-05-09T04:05:06.146Z,1.95
2017-05-09T04:07:42.069Z,1.92
2017-05-09T04:10:12.406Z,1.47
2017-05-09T04:12:42.243Z,2.45
2017-05-09T04:15:11.549Z,2.02
2017-05-09T04:17:41.256Z,1.97
2017-05-09T04:20:10.559Z,1.97
2017-05-09T04:22:39.848Z,1.95
2017-05-09T04:25:09.574Z,2.10
2017-05-09T04:27:38.874Z,1.80
2017-05-09T04:30:08.378Z,2.42
2017-05-09T04:32:37.671Z,2.10
2017-05-09T04:35:06.981Z,2.35
2017-05-09T04:37:36.284Z,2.27
2017-05-09T04:40:06.215Z,2.15
2017-05-09T04:42:35.501Z,2.52
2017-05-09T04:45:04.800Z,2.12
2017-05-09T04:47:34.089Z,1.55
2017-05-09T04:50:03.611Z,1.98
2017-05-09T04:52:32.920Z,2.23
2017-05-09T04:55:02.194Z,2.08
2017-05-09T04:57:31.717Z,2.07
2017-05-09T05:00:01.643Z,1.73
2017-05-09T05:02:31.344Z,1.24
2017-05-09T05:05:01.056Z,1.66
2017-05-09T05:07:31.190Z,1.66
2017-05-09T05:10:00.684Z,1.52
2017-05-09T05:12:30.189Z,2.40
2017-05-09T05:14:59.901Z,2.10
2017-05-09T05:17:29.510Z,1.68
2017-05-09T05:19:58.915Z,1.84
2017-05-09T05:22:28.633Z,2.06
2017-05-09T05:24:58.343Z,1.66
2017-05-09T05:27:27.840Z,1.66
2017-05-09T05:29:57.210Z,1.76
2017-05-09T05:32:26.652Z,2.42
2017-05-09T05:34:56.158Z,2.90
2017-05-09T05:37:25.865Z,2.12
2017-05-09T05:39:55.580Z,2.48
2017-05-09T05:42:25.698Z,2.32
2017-05-09T05:44:55.208Z,2.24
2017-05-09T05:47:24.711Z,3.38
2017-05-09T05:49:54.218Z,1.82
2017-05-09T05:52:24.135Z,2.42
2017-05-09T05:54:53.640Z,2.18
2017-05-09T05:57:23.352Z,2.06
2017-05-09T05:59:52.857Z,1.74
2017-05-09T06:02:22.158Z,2.44
2017-05-09T06:04:51.449Z,1.74
2017-05-09T06:07:20.757Z,2.00
2017-05-09T06:09:50.258Z,2.00
2017-05-09T06:12:19.571Z,1.92
2017-05-09T06:14:49.282Z,2.60
2017-05-09T06:17:19.199Z,2.00
2017-05-09T06:19:49.113Z,1.98
2017-05-09T06:22:18.624Z,2.58
2017-05-09T06:24:48.549Z,1.78
2017-05-09T06:27:18.044Z,2.34
2017-05-09T06:29:47.750Z,1.98
2017-05-09T06:32:17.264Z,1.68
2017-05-09T06:34:46.765Z,2.10
2017-05-09T06:37:16.043Z,2.26
2017-05-09T06:39:45.460Z,2.28
2017-05-09T06:42:15.079Z,2.00
2017-05-09T06:44:44.793Z,2.46
2017-05-09T06:47:14.285Z,1.80
2017-05-09T06:49:43.661Z,2.18
2017-05-09T06:52:13.310Z,1.88
2017-05-09T06:54:43.225Z,2.90
2017-05-09T06:57:12.939Z,2.16
2017-05-09T06:59:42.445Z,1.74
2017-05-09T07:02:12.358Z,2.00
2017-05-09T07:04:44.587Z,1.92
2017-05-09T07:07:13.948Z,1.90
2017-05-09T07:09:44.158Z,1.42
2017-05-09T07:12:14.893Z,1.62
2017-05-09T07:14:44.191Z,1.30
2017-05-09T07:17:13.493Z,1.46
2017-05-09T07:19:43.204Z,1.54
2017-05-09T07:22:12.915Z,1.20
2017-05-09T07:24:42.221Z,1.02
2017-05-09T07:27:11.723Z,1.50
2017-05-09T07:29:41.504Z,1.32
2017-05-09T07:32:10.940Z,0.88
2017-05-09T07:34:40.652Z,1.68
2017-05-09T07:37:10.121Z,1.36
2017-05-09T07:39:39.894Z,2.30
2017-05-09T07:42:10.094Z,1.60
2017-05-09T07:44:39.379Z,0.92
2017-05-09T07:47:09.514Z,1.20
2017-05-09T07:49:38.819Z,1.10
2017-05-09T07:52:08.073Z,1.26
2017-05-09T07:54:37.369Z,1.26
2017-05-09T07:57:06.620Z,1.00
2017-05-09T07:59:35.903Z,1.32
2017-05-09T08:02:05.167Z,1.00
2017-05-09T08:04:34.609Z,1.26
2017-05-09T08:07:04.336Z,1.20
2017-05-09T08:09:34.255Z,1.78
2017-05-09T08:12:04.169Z,1.70
2017-05-09T08:14:33.470Z,1.44
2017-05-09T08:17:03.084Z,0.94
2017-05-09T08:19:32.382Z,1.50
2017-05-09T08:22:02.091Z,1.56
2017-05-09T08:24:32.006Z,0.92
2017-05-09T08:27:01.513Z,2.10
2017-05-09T08:29:30.819Z,1.44
2017-05-09T08:32:00.320Z,1.34
2017-05-09T08:34:30.119Z,1.30
2017-05-09T08:36:59.851Z,1.30
2017-05-09T08:39:29.351Z,1.26
2017-05-09T08:41:58.858Z,1.32
2017-05-09T08:44:28.573Z,1.06
2017-05-09T08:46:57.856Z,1.48
2017-05-09T08:49:27.378Z,1.72
2017-05-09T08:51:56.602Z,1.30
2017-05-09T08:54:27.212Z,0.96
2017-05-09T08:56:56.716Z,1.34
2017-05-09T08:59:26.206Z,1.04
2017-05-09T09:01:55.936Z,1.20
2017-05-09T09:04:25.234Z,1.20
2017-05-09T09:06:54.743Z,1.40
2017-05-09T09:09:24.773Z,1.30
2017-05-09T09:11:55.599Z,1.08
2017-05-09T09:14:25.104Z,1.14
2017-05-09T09:16:54.602Z,1.06
2017-05-09T09:19:24.115Z,1.22
2017-05-09T09:21:53.620Z,1.24
2017-05-09T09:24:23.130Z,1.68
2017-05-09T09:26:54.608Z,1.78
2017-05-09T09:29:25.416Z,2.06
2017-05-09T09:31:54.924Z,1.40
2017-05-09T09:34:24.427Z,1.56
2017-05-09T09:36:53.935Z,1.22
2017-05-09T09:39:23.646Z,1.38
2017-05-09T09:41:54.697Z,1.28
2017-05-09T09:44:30.748Z,1.54
2017-05-09T09:47:00.235Z,1.88
2017-05-09T09:49:29.559Z,1.54
2017-05-09T09:51:58.859Z,1.20
2017-05-09T09:54:28.366Z,1.38
2017-05-09T09:56:57.876Z,1.50
2017-05-09T09:59:27.380Z,1.64
2017-05-09T10:01:57.713Z,1.72
2017-05-09T10:04:27.193Z,1.38
2017-05-09T10:06:56.715Z,1.32
2017-05-09T10:09:26.427Z,1.62
2017-05-09T10:11:55.726Z,2.16
2017-05-09T10:14:25.442Z,1.40
2017-05-09T10:16:54.784Z,1.50
2017-05-09T10:19:24.860Z,1.86
2017-05-09T10:21:54.573Z,1.58
2017-05-09T10:24:24.493Z,1.70
2017-05-09T10:26:53.783Z,1.22
2017-05-09T10:29:23.505Z,1.42
2017-05-09T10:31:53.218Z,1.98
2017-05-09T10:34:22.534Z,1.84
2017-05-09T10:36:52.085Z,1.86
2017-05-09T10:39:21.527Z,1.50
2017-05-09T10:41:51.022Z,1.80
2017-05-09T10:44:20.435Z,1.48
2017-05-09T10:46:50.355Z,1.52
2017-05-09T10:49:20.067Z,2.20
2017-05-09T10:51:49.777Z,1.76
2017-05-09T10:54:19.076Z,1.68
2017-05-09T10:56:48.368Z,1.72
2017-05-09T10:59:17.633Z,1.76
2017-05-09T11:01:46.971Z,2.36
2017-05-09T11:04:16.328Z,1.82
2017-05-09T11:06:45.789Z,1.42
2017-05-09T11:09:15.088Z,1.76
2017-05-09T11:11:45.004Z,2.00
2017-05-09T11:14:15.124Z,1.84
2017-05-09T11:16:44.630Z,1.70
2017-05-09T11:19:14.345Z,1.90
2017-05-09T11:21:43.855Z,2.22
2017-05-09T11:24:13.357Z,2.02
2017-05-09T11:26:42.871Z,2.30
2017-05-09T11:29:12.369Z,1.52
2017-05-09T11:31:42.079Z,1.70
2017-05-09T11:34:11.776Z,2.26
2017-05-09T11:36:41.295Z,1.68
2017-05-09T11:39:10.596Z,2.38
2017-05-09T11:41:40.309Z,1.80
2017-05-09T11:44:09.609Z,1.98
2017-05-09T11:46:39.319Z,1.88
2017-05-09T11:49:08.825Z,1.76
2017-05-09T11:51:38.741Z,2.02
2017-05-09T11:54:08.043Z,1.92
2017-05-09T11:56:37.753Z,1.90
2017-05-09T11:59:07.258Z,1.60
2017-05-09T12:01:36.545Z,1.66
2017-05-09T12:04:06.068Z,2.40
2017-05-09T12:06:35.376Z,2.12
2017-05-09T12:09:05.078Z,2.10
2017-05-09T12:11:35.137Z,1.90
2017-05-09T12:14:05.527Z,1.48
2017-05-09T12:16:34.826Z,2.70
2017-05-09T12:19:04.246Z,1.92
2017-05-09T12:21:33.721Z,2.02
2017-05-09T12:24:03.255Z,1.98
2017-05-09T12:26:32.543Z,1.96
2017-05-09T12:29:01.829Z,2.00
2017-05-09T12:31:31.151Z,2.12
2017-05-09T12:34:00.657Z,2.10
2017-05-09T12:36:30.144Z,1.60
2017-05-09T12:38:59.465Z,2.26
2017-05-09T12:41:28.765Z,1.98
2017-05-09T12:43:58.271Z,2.42
2017-05-09T12:46:27.767Z,2.10
2017-05-09T12:48:57.281Z,2.26
2017-05-09T12:51:26.577Z,2.60
2017-05-09T12:53:55.944Z,2.00
2017-05-09T12:56:25.803Z,1.60
2017-05-09T12:58:55.614Z,1.28
2017-05-09T13:01:25.329Z,1.60
2017-05-09T13:03:55.615Z,1.44
2017-05-09T13:06:26.080Z,2.12
2017-05-09T13:08:55.789Z,1.98
2017-05-09T13:11:25.934Z,1.72
2017-05-09T13:13:55.414Z,2.22
2017-05-09T13:16:27.311Z,2.12
2017-05-09T13:18:57.089Z,2.08
2017-05-09T13:21:27.019Z,1.42
2017-05-09T13:23:56.509Z,2.58
2017-05-09T13:26:26.020Z,1.94
2017-05-09T13:28:55.626Z,1.90
2017-05-09T13:31:25.650Z,2.04
2017-05-09T13:33:55.151Z,2.18
2017-05-09T13:36:24.868Z,1.70
2017-05-09T13:38:54.165Z,2.14
2017-05-09T13:41:23.670Z,2.16
2017-05-09T13:43:53.177Z,2.16
2017-05-09T13:46:23.502Z,1.90
2017-05-09T13:48:53.013Z,2.10
2017-05-09T13:51:22.518Z,2.50
2017-05-09T13:53:52.226Z,2.32
2017-05-09T13:56:21.738Z,2.30
2017-05-09T13:58:51.858Z,2.24
2017-05-09T14:01:21.620Z,1.98
2017-05-09T14:03:51.274Z,2.10
2017-05-09T14:06:20.561Z,2.50
2017-05-09T14:08:50.284Z,1.86
2017-05-09T14:11:19.796Z,1.88
2017-05-09T14:13:49.709Z,2.10
2017-05-09T14:16:19.046Z,2.42
2017-05-09T14:18:48.722Z,2.22
2017-05-09T14:21:18.235Z,2.06
2017-05-09T14:23:47.764Z,2.42
2017-05-09T14:26:17.859Z,2.88
2017-05-09T14:28:47.213Z,2.14
2017-05-09T14:31:16.677Z,2.66
2017-05-09T14:33:46.170Z,2.40
2017-05-09T14:36:15.676Z,2.22
2017-05-09T14:38:45.190Z,2.30
2017-05-09T14:41:15.106Z,2.46
2017-05-09T14:43:44.402Z,2.66
2017-05-09T14:46:13.913Z,2.24
2017-05-09T14:48:43.421Z,2.60
2017-05-09T14:51:13.118Z,2.24
2017-05-09T14:53:42.942Z,2.40
2017-05-09T14:56:12.693Z,2.34
2017-05-09T14:58:42.160Z,2.76
2017-05-09T15:01:11.909Z,2.18
2017-05-09T15:03:41.255Z,2.60
2017-05-09T15:06:11.901Z,2.50
2017-05-09T15:08:44.506Z,2.44
2017-05-09T15:11:14.805Z,2.52
2017-05-09T15:13:44.719Z,2.96
2017-05-09T15:16:16.036Z,2.56
2017-05-09T15:18:45.378Z,2.48
2017-05-09T15:21:17.518Z,2.50
2017-05-09T15:23:47.264Z,2.54
2017-05-09T15:26:16.757Z,2.90
2017-05-09T15:28:46.270Z,2.00
2017-05-09T15:31:15.771Z,2.16
2017-05-09T15:33:45.096Z,1.98
2017-05-09T15:36:14.580Z,2.76
2017-05-09T15:38:44.496Z,2.22
2017-05-09T15:41:14.006Z,2.68
2017-05-09T15:43:46.374Z,1.86
2017-05-09T15:46:16.232Z,1.74
2017-05-09T15:48:45.529Z,2.88
2017-05-09T15:51:14.832Z,2.22
2017-05-09T15:53:44.631Z,1.74
2017-05-09T15:56:14.322Z,2.22
2017-05-09T15:58:43.672Z,1.74
2017-05-09T16:01:13.334Z,1.32
2017-05-09T16:03:43.099Z,1.92
2017-05-09T16:06:12.583Z,1.50
2017-05-09T16:08:42.273Z,2.36
2017-05-09T16:11:11.815Z,1.54
2017-05-09T16:13:41.134Z,2.58
2017-05-09T16:16:10.456Z,1.90
2017-05-09T16:18:39.876Z,1.50
2017-05-09T16:21:09.200Z,1.78
2017-05-09T16:23:39.296Z,2.04
2017-05-09T16:26:08.805Z,1.90
2017-05-09T16:28:38.328Z,1.80
2017-05-09T16:31:08.494Z,1.88
2017-05-09T16:33:37.936Z,2.14
2017-05-09T16:36:07.330Z,2.52
2017-05-09T16:38:37.156Z,2.78
2017-05-09T16:41:08.817Z,3.02
2017-05-09T16:43:38.500Z,1.90
2017-05-09T16:46:08.335Z,1.88
2017-05-09T16:48:38.046Z,1.96
2017-05-09T16:51:08.374Z,2.14
2017-05-09T16:53:38.088Z,2.30
2017-05-09T16:56:07.644Z,1.42
2017-05-09T16:58:51.454Z,2.34
2017-05-09T17:01:22.438Z,2.50
2017-05-09T17:03:52.189Z,1.98
2017-05-09T17:06:23.795Z,2.20
2017-05-09T17:08:54.177Z,1.90
2017-05-09T17:11:24.499Z,2.58
2017-05-09T17:13:54.721Z,1.84
2017-05-09T17:16:24.440Z,1.80
2017-05-09T17:19:01.757Z,2.08
2017-05-09T17:24:36.877Z,2.12
2017-05-09T17:27:06.792Z,2.28
2017-05-09T17:29:36.189Z,1.66
2017-05-09T17:32:05.487Z,1.70
2017-05-09T17:34:35.301Z,2.20
2017-05-09T17:37:05.227Z,2.54
2017-05-09T17:39:34.835Z,2.76
2017-05-09T17:42:04.240Z,2.34
2017-05-09T17:44:34.358Z,2.22
2017-05-09T17:47:03.871Z,1.92
2017-05-09T17:49:33.808Z,2.38
2017-05-09T17:52:03.633Z,1.80
2017-05-09T17:54:33.190Z,2.58
2017-05-09T17:57:02.605Z,3.62
2017-05-09T17:59:33.456Z,1.84
2017-05-09T18:02:04.763Z,2.04
2017-05-09T18:04:34.713Z,2.42
2017-05-09T18:07:05.084Z,2.14
2017-05-09T18:09:36.473Z,2.16
2017-05-09T18:12:06.957Z,2.26
2017-05-09T18:14:37.807Z,2.58
2017-05-09T18:17:13.749Z,2.90
2017-05-09T18:19:43.835Z,2.60
2017-05-09T18:22:14.834Z,3.98
2017-05-09T18:24:44.528Z,2.16
2017-05-09T18:27:14.190Z,2.12
2017-05-09T18:29:43.484Z,2.06
2017-05-09T18:32:13.412Z,2.34
2017-05-09T18:34:42.720Z,2.82
2017-05-09T18:37:12.528Z,2.46
2017-05-09T18:39:41.816Z,2.08
2017-05-09T18:42:11.389Z,2.80
2017-05-09T18:44:40.846Z,2.24
2017-05-09T18:47:10.147Z,3.18
2017-05-09T18:49:39.443Z,2.88
2017-05-09T18:52:08.751Z,5.40
2017-05-09T18:54:38.050Z,2.70
2017-05-09T18:57:08.827Z,2.54
2017-05-09T19:00:41.370Z,2.98
2017-05-09T19:03:11.901Z,2.60
2017-05-09T19:05:41.202Z,2.72
2017-05-09T19:08:10.485Z,3.76
2017-05-09T19:10:39.803Z,2.30
2017-05-09T19:13:09.412Z,2.70
2017-05-09T19:15:39.319Z,2.64
2017-05-09T19:18:09.034Z,2.58
2017-05-09T19:20:38.542Z,2.24
2017-05-09T19:23:07.848Z,2.70
2017-05-09T19:25:37.352Z,2.72
2017-05-09T19:28:06.656Z,2.48
2017-05-09T19:30:36.161Z,2.68
2017-05-09T19:33:05.668Z,3.44
2017-05-09T19:35:35.181Z,2.68
2017-05-09T19:38:04.579Z,2.28
2017-05-09T19:40:34.187Z,3.00
2017-05-09T19:43:03.740Z,2.54
2017-05-09T19:45:33.203Z,2.20
2017-05-09T19:48:03.999Z,2.96
2017-05-09T19:50:33.443Z,3.70
2017-05-09T19:53:02.931Z,2.54
2017-05-09T19:55:32.863Z,4.02
2017-05-09T19:58:02.323Z,2.77
2017-05-09T20:00:31.580Z,3.40
2017-05-09T20:03:00.820Z,3.33
2017-05-09T20:05:30.483Z,2.78
2017-05-09T20:07:59.996Z,3.15
2017-05-09T20:10:29.489Z,2.82
2017-05-09T20:12:58.997Z,2.62
2017-05-09T20:15:28.504Z,2.55
2017-05-09T20:17:57.804Z,3.05
2017-05-09T20:20:27.719Z,2.67
2017-05-09T20:22:58.191Z,3.23
2017-05-09T20:25:27.553Z,2.93
2017-05-09T20:27:57.263Z,2.90
2017-05-09T20:30:26.974Z,3.37
2017-05-09T20:32:56.481Z,4.42
2017-05-09T20:35:25.767Z,4.55
2017-05-09T20:37:55.084Z,3.37
2017-05-09T20:40:24.604Z,2.82
2017-05-09T20:42:54.104Z,3.05
2017-05-09T20:45:23.602Z,2.58
2017-05-09T20:47:52.932Z,2.67
2017-05-09T20:50:22.414Z,3.17
2017-05-09T20:52:52.126Z,3.15
2017-05-09T20:55:21.629Z,2.58
2017-05-09T20:57:51.136Z,3.30
2017-05-09T21:00:20.642Z,4.45
2017-05-09T21:02:49.921Z,2.22
2017-05-09T21:05:19.249Z,3.67
2017-05-09T21:07:48.962Z,5.23
2017-05-09T21:10:18.466Z,3.08
2017-05-09T21:12:47.970Z,3.23
2017-05-09T21:15:17.275Z,2.60
2017-05-09T21:17:46.778Z,3.58
2017-05-09T21:20:16.174Z,2.90
2017-05-09T21:22:45.482Z,3.10
2017-05-09T21:25:15.193Z,3.02
2017-05-09T21:27:44.619Z,3.13
2017-05-09T21:30:14.819Z,3.82
2017-05-09T21:32:44.122Z,2.35
2017-05-09T21:35:14.037Z,2.68
2017-05-09T21:37:43.781Z,3.02
2017-05-09T21:40:13.237Z,2.50
2017-05-09T21:42:42.807Z,2.85
2017-05-09T21:45:13.069Z,2.65
2017-05-09T21:47:42.593Z,2.73
2017-05-09T21:50:12.101Z,2.83
2017-05-09T21:52:41.404Z,2.70
2017-05-09T21:55:10.746Z,2.55
2017-05-09T21:57:40.417Z,2.77
2017-05-09T22:00:10.136Z,2.82
2017-05-09T22:02:39.844Z,2.93
2017-05-09T22:05:09.343Z,2.68
2017-05-09T22:07:39.240Z,2.47
2017-05-09T22:10:08.769Z,2.30
2017-05-09T22:12:38.271Z,2.80
2017-05-09T22:15:30.309Z,2.58
2017-05-09T22:18:00.019Z,2.32
2017-05-09T22:20:29.259Z,3.33
2017-05-09T22:22:58.884Z,2.80
2017-05-09T22:25:28.386Z,2.97
2017-05-09T22:27:58.247Z,2.80
2017-05-09T22:30:27.548Z,4.05
2017-05-09T22:32:56.887Z,2.78
2017-05-09T22:35:26.353Z,2.05
2017-05-09T22:37:55.639Z,2.40
2017-05-09T22:40:25.167Z,2.35
2017-05-09T22:42:54.453Z,2.45
2017-05-09T22:45:23.966Z,2.62
2017-05-09T22:47:53.264Z,2.80
2017-05-09T22:50:22.578Z,3.60
2017-05-09T22:52:51.878Z,2.47
2017-05-09T22:55:21.587Z,3.05
2017-05-09T22:57:50.892Z,2.48
2017-05-09T23:00:20.287Z,2.42
2017-05-09T23:02:49.689Z,2.78
2017-05-09T23:05:18.998Z,2.97
2017-05-09T23:07:48.304Z,2.52
2017-05-09T23:10:17.800Z,2.67
2017-05-09T23:12:47.102Z,2.97
2017-05-09T23:15:16.619Z,3.30
2017-05-09T23:17:45.899Z,2.43
2017-05-09T23:20:15.526Z,3.15
2017-05-09T23:22:45.338Z,2.77
2017-05-09T23:25:14.828Z,2.32
2017-05-09T23:27:44.156Z,3.35
2017-05-09T23:30:13.651Z,2.70
2017-05-09T23:32:43.158Z,2.35
2017-05-09T23:35:12.384Z,2.50
2017-05-09T23:37:42.376Z,2.57
2017-05-09T23:40:11.884Z,2.67
2017-05-09T23:42:41.372Z,2.73
2017-05-09T23:45:10.689Z,2.08
2017-05-09T23:47:39.967Z,3.67
2017-05-09T23:50:09.900Z,3.18
2017-05-09T23:52:39.414Z,2.35
2017-05-09T23:55:08.920Z,2.73
2017-05-09T23:57:38.621Z,3.10
